Terminal Aerodrome Forecast
Issued by NWS

Home | Current Version | Previous Version | Text Only | Print | Product List | Glossary On
Versions: 1 2 3 4 5 6 7 8 9 10 11 12 13 14
372
FTUS42 KFFC 110741 AAA
TAFFTY
TAF AMD
KFTY 110741Z 1108/1206 10003KT P6SM FEW250
     FM111200 10004KT P6SM SCT030
     FM111400 10005KT P6SM BKN025
     FM112000 11006KT P6SM BKN015
     FM120000 12005KT P6SM VCSH BKN008
     FM120500 15004KT 4SM -RADZ BR OVC006=

USA.gov is the U.S. government's official web portal to all federal, state and local government web resources and services.